createdAt,value
2022-08-28T00:00:06.348Z,41
2022-08-28T00:05:24.824Z,42
2022-08-28T00:10:43.034Z,41.6
2022-08-28T00:16:01.527Z,42.6
2022-08-28T00:21:20.058Z,42.3
2022-08-28T00:26:38.550Z,43.3
2022-08-28T00:31:56.466Z,42.5
2022-08-28T00:37:14.398Z,42.2
2022-08-28T00:42:33.162Z,43.4
2022-08-28T00:47:51.375Z,42.8
2022-08-28T00:53:09.857Z,42.5
2022-08-28T00:58:28.331Z,43.2
2022-08-28T01:03:46.819Z,42.8
2022-08-28T01:09:05.571Z,42.8
2022-08-28T01:14:24.057Z,42.7
2022-08-28T01:19:42.538Z,42.8
2022-08-28T01:25:01.016Z,42.8
2022-08-28T01:30:19.501Z,41.6
2022-08-28T01:35:38.277Z,42.2
2022-08-28T01:40:57.044Z,42.3
2022-08-28T01:46:15.742Z,41.5
2022-08-28T01:51:38.542Z,42.8
2022-08-28T01:56:57.482Z,42.5
2022-08-28T02:02:15.955Z,41.6
2022-08-28T02:07:33.886Z,41.6
2022-08-28T02:12:52.089Z,42.3
2022-08-28T02:18:10.422Z,41.6
2022-08-28T02:23:28.986Z,42
2022-08-28T02:28:47.475Z,42.4
2022-08-28T02:34:06.235Z,40.9
2022-08-28T02:39:24.716Z,41.2
2022-08-28T02:44:42.918Z,41.4
2022-08-28T02:50:01.401Z,40.4
2022-08-28T02:55:19.882Z,40.8
2022-08-28T03:00:38.089Z,41.1
2022-08-28T03:05:56.571Z,41.5
2022-08-28T03:11:14.798Z,40.9
2022-08-28T03:16:33.120Z,41.4
2022-08-28T03:21:53.573Z,40.4
2022-08-28T03:27:12.332Z,41.2
2022-08-28T03:32:31.098Z,40.8
2022-08-28T03:37:49.585Z,41.3
2022-08-28T03:43:07.663Z,41.4
2022-08-28T03:48:25.880Z,41.6
2022-08-28T03:53:44.360Z,40.9
2022-08-28T03:59:02.851Z,41.6
2022-08-28T04:04:21.625Z,41.2
2022-08-28T04:09:40.387Z,41
2022-08-28T04:14:58.591Z,41
2022-08-28T04:20:17.082Z,41
2022-08-28T04:25:35.575Z,42
2022-08-28T04:30:54.048Z,41.2
2022-08-28T04:36:12.811Z,40.5
2022-08-28T04:41:31.295Z,41.2
2022-08-28T04:46:49.953Z,41.2
2022-08-28T04:52:09.169Z,40.8
2022-08-28T04:57:27.930Z,40.1
2022-08-28T05:02:46.134Z,40.7
2022-08-28T05:08:04.894Z,40.8
2022-08-28T05:13:23.658Z,40.5
2022-08-28T05:18:42.139Z,41.8
2022-08-28T05:24:00.346Z,41.9
2022-08-28T05:29:18.547Z,40.9
2022-08-28T05:34:37.027Z,41.2
2022-08-28T05:39:55.569Z,40.6
2022-08-28T05:45:13.485Z,41.7
2022-08-28T05:50:31.697Z,41.8
2022-08-28T05:55:52.567Z,41.7
2022-08-28T06:01:11.047Z,42.2
2022-08-28T06:06:29.261Z,42.5
2022-08-28T06:11:47.463Z,42.5
2022-08-28T06:17:05.664Z,41.3
2022-08-28T06:22:24.161Z,41
2022-08-28T06:27:42.351Z,41.3
2022-08-28T06:33:00.804Z,41.9
2022-08-28T06:38:19.238Z,42
2022-08-28T06:43:38.004Z,41.5
2022-08-28T06:48:56.767Z,42.5
2022-08-28T06:54:23.809Z,41.7
2022-08-28T06:59:42.526Z,41.2
2022-08-28T07:05:00.961Z,42.9
2022-08-28T07:10:19.503Z,42.9
2022-08-28T07:15:42.673Z,43.1
2022-08-28T07:21:00.856Z,42.4
2022-08-28T07:26:19.587Z,42.2
2022-08-28T07:31:38.626Z,42.9
2022-08-28T07:36:56.867Z,41.8
2022-08-28T07:42:14.791Z,43
2022-08-28T07:47:33.546Z,43.1
2022-08-28T07:52:51.998Z,42.9
2022-08-28T07:58:10.347Z,42.8
2022-08-28T08:03:28.389Z,41.7
2022-08-28T08:08:46.840Z,42.9
2022-08-28T08:14:06.511Z,42.7
2022-08-28T08:19:25.276Z,42.2
2022-08-28T08:24:44.032Z,41.8
2022-08-28T08:30:02.202Z,42
2022-08-28T08:35:20.956Z,42.8
2022-08-28T08:40:39.642Z,43.1
2022-08-28T08:45:58.504Z,42.4
2022-08-28T08:51:17.220Z,42.2
2022-08-28T08:56:36.266Z,43
2022-08-28T09:01:54.809Z,42.7
2022-08-28T09:07:13.559Z,42.6
2022-08-28T09:12:31.995Z,42.2
2022-08-28T09:17:50.744Z,42.8
2022-08-28T09:23:14.469Z,44
2022-08-28T09:28:33.323Z,43.8
2022-08-28T09:33:51.800Z,43.7
2022-08-28T09:39:10.299Z,43.2
2022-08-28T09:44:28.498Z,43
2022-08-28T09:49:46.968Z,43.8
2022-08-28T09:55:05.707Z,43.7
2022-08-28T11:28:47.351Z,41.4
2022-08-28T11:34:05.542Z,40.9
2022-08-28T11:39:24.284Z,41.9
2022-08-28T11:44:45.506Z,41.5
2022-08-28T11:50:03.673Z,42.4
2022-08-28T11:55:22.136Z,42.6
2022-08-28T12:00:40.612Z,41.6
2022-08-28T12:05:59.380Z,41.4
2022-08-28T12:11:18.145Z,41.6
2022-08-28T12:16:36.877Z,42.6
2022-08-28T12:21:55.676Z,40.9
2022-08-28T12:27:14.427Z,40.4
2022-08-28T12:32:32.642Z,41
2022-08-28T12:37:54.084Z,41.1
2022-08-28T12:43:16.345Z,39.9
2022-08-28T12:48:35.189Z,40.1
2022-08-28T12:53:53.681Z,39.8
2022-08-28T12:59:12.449Z,40.8
2022-08-28T13:04:32.470Z,40.6
2022-08-28T13:09:50.692Z,40.3
2022-08-28T13:15:09.167Z,39.6
2022-08-28T13:20:27.621Z,39.9
2022-08-28T13:25:46.080Z,40.2
2022-08-28T13:31:04.552Z,37.4
2022-08-28T13:36:23.012Z,38.1
2022-08-28T13:41:41.021Z,37.5
2022-08-28T13:46:59.560Z,39
2022-08-28T13:52:18.672Z,38.9
2022-08-28T13:57:37.405Z,37.8
2022-08-28T14:02:55.876Z,36.9
2022-08-28T14:08:14.362Z,37.6
2022-08-28T14:13:33.125Z,36.4
2022-08-28T14:18:51.600Z,39
2022-08-28T14:24:10.355Z,37.9
2022-08-28T14:29:29.121Z,37.5
2022-08-28T14:34:47.603Z,37.2
2022-08-28T14:40:05.876Z,35.9
2022-08-28T14:45:23.870Z,33.9
2022-08-28T14:50:42.062Z,33.7
2022-08-28T14:56:00.827Z,34.6
2022-08-28T15:01:20.007Z,34.1
2022-08-28T15:06:38.755Z,35.6
2022-08-28T15:11:57.525Z,35.4
2022-08-28T15:17:15.428Z,34.9
2022-08-28T15:22:33.361Z,35.3
2022-08-28T15:27:51.531Z,36
2022-08-28T15:33:10.049Z,37.7
2022-08-28T15:38:28.484Z,36.5
2022-08-28T15:43:48.773Z,37.3
2022-08-28T15:49:10.730Z,36.6
2022-08-28T15:54:29.451Z,37.6
2022-08-28T15:59:51.042Z,37.2
2022-08-28T16:05:09.173Z,37.1
2022-08-28T16:10:27.899Z,38.8
2022-08-28T16:15:46.068Z,38.9
2022-08-28T16:21:05.821Z,37.7
2022-08-28T16:26:23.710Z,37.9
2022-08-28T16:31:41.829Z,39.4
2022-08-28T16:37:00.434Z,39.4
2022-08-28T16:42:18.875Z,39.3
2022-08-28T16:47:37.318Z,38.9
2022-08-28T16:52:56.058Z,40
2022-08-28T16:58:18.309Z,39.5
2022-08-28T17:03:36.697Z,40.3
2022-08-28T17:08:57.592Z,39.9
2022-08-28T17:14:16.065Z,40
2022-08-28T17:19:34.546Z,39.7
2022-08-28T17:24:53.439Z,39.5
2022-08-28T17:30:11.919Z,40.1
2022-08-28T17:35:30.684Z,39.4
2022-08-28T17:40:48.583Z,39
2022-08-28T17:46:07.497Z,38.6
2022-08-28T17:51:44.868Z,38.6
2022-08-28T17:57:03.035Z,39.6
2022-08-28T18:02:21.488Z,39.6
2022-08-28T18:07:39.944Z,38.8
2022-08-28T18:12:58.387Z,39.5
2022-08-28T18:18:17.267Z,39.8
2022-08-28T18:23:35.931Z,40
2022-08-28T18:28:54.557Z,40.1
2022-08-28T18:34:13.196Z,39.5
2022-08-28T18:39:32.960Z,41.1
2022-08-28T18:44:51.596Z,41.4
2022-08-28T18:50:10.506Z,40.7
2022-08-28T18:55:32.650Z,40.5
2022-08-28T19:00:51.223Z,41
2022-08-28T19:06:09.727Z,41.4
2022-08-28T19:11:28.195Z,40.9
2022-08-28T19:16:46.678Z,40.3
2022-08-28T19:22:05.450Z,41.8
2022-08-28T19:27:23.925Z,41.6
2022-08-28T19:32:42.690Z,41.3
2022-08-28T19:38:01.437Z,41.5
2022-08-28T19:43:20.726Z,41.3
2022-08-28T19:48:39.489Z,41.2
2022-08-28T19:53:59.395Z,41.1
2022-08-28T19:59:18.228Z,41.6
2022-08-28T20:04:36.662Z,42.3
2022-08-28T20:09:55.140Z,41.7
2022-08-28T20:15:16.853Z,42.3
2022-08-28T20:20:35.052Z,42.4
2022-08-28T20:25:53.807Z,43
2022-08-28T20:31:12.726Z,42.5
2022-08-28T20:36:30.915Z,42.2
2022-08-28T20:41:49.381Z,41.3
2022-08-28T20:47:09.650Z,42.4
2022-08-28T20:52:27.850Z,42.2
2022-08-28T20:57:46.316Z,41.8
2022-08-28T21:03:04.912Z,42.5
2022-08-28T21:08:23.383Z,42.2
2022-08-28T21:13:41.590Z,42
2022-08-28T21:19:17.245Z,42.3
2022-08-28T21:24:35.778Z,43.5
2022-08-28T21:29:54.235Z,43
2022-08-28T21:35:12.708Z,42
2022-08-28T21:40:31.071Z,42.9
2022-08-28T21:45:49.761Z,43.2
2022-08-28T21:51:08.105Z,42.1
2022-08-28T21:56:26.860Z,42.5
2022-08-28T22:01:45.714Z,42.9
2022-08-28T22:07:04.022Z,42.4
2022-08-28T22:12:22.233Z,41.8
2022-08-28T22:17:40.998Z,42.4
2022-08-28T22:22:59.203Z,42.3
2022-08-28T22:28:17.681Z,42.5
2022-08-28T22:33:36.157Z,41.7
2022-08-28T22:38:54.652Z,42.6
2022-08-28T22:44:13.129Z,42.7
2022-08-28T22:49:31.613Z,43
2022-08-28T22:54:53.615Z,43.3
2022-08-28T23:00:12.104Z,43.2
2022-08-28T23:05:30.866Z,43.2
2022-08-28T23:10:59.976Z,42.6
2022-08-28T23:16:18.688Z,43.1
2022-08-28T23:21:44.874Z,44
2022-08-28T23:27:37.065Z,43.3
2022-08-28T23:32:55.271Z,43.6
2022-08-28T23:38:14.149Z,43.4
2022-08-28T23:43:32.755Z,43.1
2022-08-28T23:48:52.218Z,43.3
2022-08-28T23:54:10.981Z,43.8
2022-08-28T23:59:29.877Z,43.5
